Aérodrome :
LOGIN :

S'inscrire | Disclaimer

   EN    FR    IT 

 










Légende :    VFR   VFR Marginal   IFR   IFR Intensif   IFR Très Intensif
Visi : 
Plafond : 
>= 8 km
>= 3000ft
5 à 8 km
1000 à 3000 ft
1500m à 5 km
500 à 1000 ft
800 à 1500m
200 à 500 ft
< 800m
< 200 ft
Symboles :   Orages  Brouillard  Fortes neiges  Fortes précipitations  Vent > 20 kt
SIGMETs :   Divers  Orages  Givrage  Turbulence  Onde Orograph.  Cendres Volcan.







- Altitude de l'aérodrome : 70 ft
- Code IATA : LEI


LEAM - Almeria

DERNIER METAR :
  • 232300Z AUTO 00000KT 9999 NCD 24/20 Q1016

METARs EXPIRÉS :
  • 232230Z AUTO 00000KT 9999 NCD 24/20 Q1016
  • 232200Z AUTO 07002KT 9999 NCD 25/21 Q1016
  • 232130Z 08003KT CAVOK 25/21 Q1016
  • 232100Z 07003KT CAVOK 26/20 Q1016
  • 232030Z 00000KT CAVOK 26/23 Q1016

TAF TAF LEAM
Valide du 23 à 21h jusqu'au 24 à 21h UTC


232000Z 2321/2421 02003KT CAVOK TX29/2414Z TN22/2406Z
BECMG 2408/2411 21011KT
Pas de NOTAMs connus pour ce terrain.
2 SIGMETs publiés pour la FIR Madrid (LECM) :
 
Orages noyés dans la masse
LECM SIGMET 7 VALID 232308/240200 LEVA
LECM MADRID FIR/UIR EMBD TS OBS AT 2301Z E OF LINE N43 W00210 - N41 W00220 TOP FL400 MOV NE NC=
Orages noyés dans la masse
LECM SIGMET 6 VALID 232100/232300 LEVA
LECM MADRID FIR/UIR EMBD TS OBS AT 2039Z E OF LINE N4250 W00320 - N4010 W00210 TOP FL400 MOV NE NC=



MET'MAP, la Météo Aéronautique d'un coup d'oeil ! - Copyright ORBIFLY Décembre 2007 - Disclaimer

ORBIFLY MET'MAP TEAM :

Programmation & Développement : Alexandra Zaïnal
Conception & Développement : Baudouin d'Aumeries
Co-Programmation & Développement : Marc-Olivier Méhu
Soutien technique & logistique : Manuel Goepfert

Contact : metmap@orbifly.com




SOURCES & CREDITS :

   NOAA